Time;durP1;ratioP1;P1;durP2;ratioP2;P2;SDS_P1;SDS_P2;PMS_P1;PMS_P2;Temp;Humidity;BMP_temperature;BMP_pressure;BME280_temperature;BME280_humidity;BME280_pressure;Samples;Min_cycle;Max_cycle;Signal;HPM_P1;HPM_P2
2023/06/12 00:00:54;;;;;;;4.72;3.60;;;24.10;50.80;;;;;;5084910;28;20271;-67
2023/06/12 00:03:26;;;;;;;4.27;3.57;;;24.00;50.80;;;;;;5046112;28;20023;-66
2023/06/12 00:05:58;;;;;;;4.97;3.53;;;23.90;51.10;;;;;;5081761;28;20020;-67
2023/06/12 00:08:26;;;;;;;4.47;3.58;;;23.90;51.20;;;;;;5071128;27;20036;-66
2023/06/12 00:10:52;;;;;;;4.10;3.40;;;23.90;51.20;;;;;;5082839;28;20069;-67
2023/06/12 00:13:18;;;;;;;4.60;3.50;;;23.80;51.10;;;;;;5079351;28;20118;-66
2023/06/12 00:15:44;;;;;;;6.38;4.03;;;23.70;51.20;;;;;;5083845;28;20151;-67
2023/06/12 00:18:11;;;;;;;5.53;3.80;;;23.70;51.40;;;;;;5060005;28;20024;-67
2023/06/12 00:20:36;;;;;;;4.97;3.60;;;23.70;51.60;;;;;;5080149;28;20034;-67
2023/06/12 00:23:02;;;;;;;4.32;3.42;;;23.60;51.60;;;;;;5086322;27;20028;-67
2023/06/12 00:25:28;;;;;;;4.97;3.42;;;23.60;51.70;;;;;;5060453;28;20541;-66
2023/06/12 00:27:54;;;;;;;4.17;3.40;;;23.50;51.90;;;;;;5079129;28;20086;-67
2023/06/12 00:30:21;;;;;;;4.25;3.60;;;23.50;51.90;;;;;;5069839;28;20421;-66
2023/06/12 00:32:47;;;;;;;4.20;3.47;;;23.40;52.00;;;;;;5054203;28;21046;-67
2023/06/12 00:35:13;;;;;;;4.70;3.47;;;23.40;52.00;;;;;;5080576;28;20020;-67
2023/06/12 00:37:41;;;;;;;4.07;3.55;;;23.40;52.00;;;;;;5066650;28;20372;-67
2023/06/12 00:40:09;;;;;;;4.25;3.53;;;23.40;52.10;;;;;;5057381;28;20061;-67
2023/06/12 00:42:41;;;;;;;3.92;3.40;;;23.30;52.20;;;;;;5070355;28;20082;-67
2023/06/12 00:45:08;;;;;;;3.92;3.28;;;23.30;52.30;;;;;;5061383;28;20509;-68
2023/06/12 00:47:35;;;;;;;4.07;3.37;;;23.30;52.40;;;;;;5071769;28;20066;-67
2023/06/12 00:50:01;;;;;;;4.00;3.25;;;23.30;52.60;;;;;;5060498;28;20116;-67
2023/06/12 00:52:34;;;;;;;4.00;3.40;;;23.20;52.60;;;;;;5083283;28;20042;-67
2023/06/12 00:55:01;;;;;;;3.92;3.17;;;23.20;52.70;;;;;;5070817;28;20209;-68
2023/06/12 00:57:27;;;;;;;4.10;3.28;;;23.20;52.60;;;;;;5080407;27;20494;-67
2023/06/12 00:59:56;;;;;;;4.57;3.43;;;23.10;53.30;;;;;;5069329;28;20348;-67
2023/06/12 01:02:22;;;;;;;4.20;3.47;;;23.10;53.00;;;;;;5082698;28;20401;-67
2023/06/12 01:04:50;;;;;;;4.97;3.50;;;23.10;52.70;;;;;;5054627;28;20035;-66
2023/06/12 01:07:34;;;;;;;4.60;3.60;;;23.10;52.70;;;;;;5069496;28;20358;-67
2023/06/12 01:10:13;;;;;;;3.88;3.25;;;23.00;53.20;;;;;;5071895;28;20043;-68
2023/06/12 01:12:40;;;;;;;3.77;3.10;;;23.00;53.10;;;;;;5063838;28;20043;-66
2023/06/12 01:15:07;;;;;;;4.70;3.42;;;23.00;52.60;;;;;;5074696;28;20261;-67
2023/06/12 01:17:32;;;;;;;4.32;3.50;;;22.90;52.60;;;;;;5085681;28;20102;-67
2023/06/12 01:20:11;;;;;;;5.80;3.38;;;22.90;52.70;;;;;;5068514;27;20660;-68
2023/06/12 01:22:49;;;;;;;4.10;3.20;;;22.90;52.90;;;;;;5081958;28;20070;-66
2023/06/12 01:25:35;;;;;;;5.05;3.30;;;22.90;53.40;;;;;;5072433;28;20418;-67
2023/06/12 01:28:25;;;;;;;4.80;3.53;;;22.90;53.80;;;;;;5059494;28;20158;-67
2023/06/12 01:31:13;;;;;;;5.13;3.20;;;22.90;52.90;;;;;;5066191;28;20040;-67
2023/06/12 01:33:42;;;;;;;4.20;3.30;;;22.80;53.10;;;;;;5085325;28;20499;-67
2023/06/12 01:36:13;;;;;;;4.97;3.30;;;22.80;53.00;;;;;;5055947;28;20335;-67
2023/06/12 01:38:41;;;;;;;4.28;3.30;;;22.80;53.20;;;;;;5090333;28;20529;-67
2023/06/12 01:41:07;;;;;;;4.32;3.65;;;22.80;53.20;;;;;;5068589;28;20029;-67
2023/06/12 01:43:36;;;;;;;5.03;3.28;;;22.70;53.20;;;;;;5065797;28;20012;-68
2023/06/12 01:46:03;;;;;;;3.95;3.40;;;22.70;53.40;;;;;;5073874;28;20024;-67
2023/06/12 01:48:29;;;;;;;4.67;3.60;;;22.70;53.30;;;;;;5076982;28;20140;-67
2023/06/12 01:50:55;;;;;;;4.13;3.33;;;22.70;53.30;;;;;;5076697;28;20027;-67
2023/06/12 01:53:21;;;;;;;4.30;3.38;;;22.60;53.30;;;;;;5058054;28;20174;-67
2023/06/12 01:55:49;;;;;;;5.10;3.90;;;22.60;53.30;;;;;;5080552;28;20392;-67
2023/06/12 01:58:16;;;;;;;4.33;3.30;;;22.60;54.00;;;;;;5047708;28;20900;-67
2023/06/12 02:00:42;;;;;;;4.63;3.50;;;22.50;53.30;;;;;;5082875;28;20083;-67
2023/06/12 02:03:07;;;;;;;4.47;3.60;;;22.50;53.40;;;;;;5060521;28;20126;-67
2023/06/12 02:05:33;;;;;;;5.87;4.10;;;22.50;53.50;;;;;;5081709;28;20048;-67
2023/06/12 02:07:59;;;;;;;4.35;3.65;;;22.50;53.50;;;;;;5047208;28;20253;-67
2023/06/12 02:10:25;;;;;;;4.70;3.72;;;22.40;53.50;;;;;;5082401;28;20039;-67
2023/06/12 02:12:51;;;;;;;4.30;3.70;;;22.40;53.60;;;;;;5072029;28;20132;-67
2023/06/12 02:15:18;;;;;;;3.80;3.20;;;22.30;53.60;;;;;;5063171;28;20071;-68
2023/06/12 02:17:44;;;;;;;4.70;3.70;;;22.30;53.70;;;;;;5068834;28;20088;-67
2023/06/12 02:20:10;;;;;;;5.10;4.00;;;22.30;53.80;;;;;;5072446;28;20599;-67
2023/06/12 02:22:36;;;;;;;4.65;4.00;;;22.20;53.80;;;;;;5049984;28;20089;-67
2023/06/12 02:25:02;;;;;;;4.65;3.88;;;22.20;53.80;;;;;;5074158;28;20162;-67
2023/06/12 02:27:27;;;;;;;5.20;4.07;;;22.20;53.90;;;;;;5068019;28;20032;-67
2023/06/12 02:29:53;;;;;;;5.17;4.17;;;22.20;54.00;;;;;;5058167;28;20024;-67
2023/06/12 02:32:19;;;;;;;6.45;4.03;;;22.10;54.00;;;;;;5056050;28;20125;-68
2023/06/12 02:34:44;;;;;;;5.13;4.17;;;22.10;54.10;;;;;;5078612;28;20035;-67
2023/06/12 02:37:10;;;;;;;4.75;3.90;;;22.00;54.20;;;;;;5048350;28;20121;-67
2023/06/12 02:39:36;;;;;;;4.40;3.80;;;22.00;54.30;;;;;;5070108;28;20051;-67
2023/06/12 02:42:03;;;;;;;5.00;4.00;;;22.00;54.40;;;;;;5072508;28;20056;-67
2023/06/12 02:44:28;;;;;;;6.05;3.90;;;21.90;54.50;;;;;;5065213;28;20537;-67
2023/06/12 02:46:59;;;;;;;5.70;3.97;;;21.80;54.50;;;;;;5056219;28;20063;-67
2023/06/12 02:49:30;;;;;;;4.95;3.83;;;21.80;55.20;;;;;;5075262;28;20034;-67
2023/06/12 02:51:56;;;;;;;5.82;4.15;;;21.70;55.20;;;;;;5077679;28;20116;-66
2023/06/12 02:54:26;;;;;;;4.65;3.78;;;21.70;55.00;;;;;;5057501;28;20291;-67
2023/06/12 02:56:52;;;;;;;5.63;4.20;;;21.60;55.30;;;;;;5082356;28;20302;-66
2023/06/12 02:59:19;;;;;;;5.63;4.10;;;21.50;55.10;;;;;;5074541;28;20190;-67
2023/06/12 03:01:45;;;;;;;5.18;3.97;;;21.50;55.20;;;;;;5070267;28;20066;-67
2023/06/12 03:04:12;;;;;;;5.60;4.40;;;21.40;55.20;;;;;;5074595;28;20035;-67
2023/06/12 03:06:39;;;;;;;5.07;4.10;;;21.40;55.40;;;;;;5069992;28;20580;-67
2023/06/12 03:09:08;;;;;;;5.03;4.03;;;21.30;55.50;;;;;;5054495;28;20019;-67
2023/06/12 03:11:37;;;;;;;5.10;3.95;;;21.30;55.80;;;;;;5082069;28;20671;-67
2023/06/12 03:14:04;;;;;;;5.35;4.07;;;21.20;55.80;;;;;;5074570;28;20028;-67
2023/06/12 03:16:31;;;;;;;6.05;4.15;;;21.20;56.00;;;;;;5065897;28;20052;-67
2023/06/12 03:18:57;;;;;;;6.88;4.20;;;21.10;56.00;;;;;;5079964;28;20486;-67
2023/06/12 03:21:23;;;;;;;5.47;4.17;;;21.10;56.20;;;;;;5081541;28;20078;-67
2023/06/12 03:23:49;;;;;;;6.18;4.07;;;21.00;56.30;;;;;;5087263;28;20020;-66
2023/06/12 03:26:15;;;;;;;5.00;3.95;;;21.00;56.40;;;;;;5057936;28;20036;-67
2023/06/12 03:28:42;;;;;;;5.43;4.00;;;20.90;56.40;;;;;;5079707;28;20043;-67
2023/06/12 03:31:07;;;;;;;4.88;4.07;;;20.90;56.60;;;;;;5063471;28;20163;-67
2023/06/12 03:33:33;;;;;;;5.25;4.25;;;20.80;56.70;;;;;;5086146;28;20024;-67
2023/06/12 03:35:59;;;;;;;5.27;4.20;;;20.80;56.80;;;;;;5079752;28;20409;-66
2023/06/12 03:38:25;;;;;;;6.57;4.38;;;20.70;57.80;;;;;;5088760;28;20536;-67
2023/06/12 03:40:51;;;;;;;5.57;4.20;;;20.70;57.20;;;;;;5075209;28;20027;-67
2023/06/12 03:43:17;;;;;;;5.87;4.40;;;20.60;57.20;;;;;;5069480;28;20028;-67
2023/06/12 03:45:42;;;;;;;6.07;4.20;;;20.60;57.40;;;;;;5073444;28;20035;-67
2023/06/12 03:48:08;;;;;;;6.03;4.03;;;20.50;57.50;;;;;;5049177;28;20042;-67
2023/06/12 03:50:34;;;;;;;6.55;4.18;;;20.50;57.60;;;;;;5070542;28;20279;-66
2023/06/12 03:53:00;;;;;;;5.30;4.10;;;20.50;57.70;;;;;;5076992;28;20209;-67
2023/06/12 03:55:25;;;;;;;5.82;4.13;;;20.50;57.80;;;;;;5082037;28;20034;-67
2023/06/12 03:57:51;;;;;;;5.37;4.20;;;20.40;57.90;;;;;;5050563;28;20468;-67
2023/06/12 04:00:19;;;;;;;5.88;4.70;;;20.40;58.00;;;;;;5069125;28;20032;-67
2023/06/12 04:02:45;;;;;;;6.75;4.28;;;20.40;58.00;;;;;;5063264;28;20062;-67
2023/06/12 04:05:11;;;;;;;6.70;4.47;;;20.50;58.10;;;;;;5080305;28;20023;-67
2023/06/12 04:07:37;;;;;;;6.20;4.57;;;20.40;58.10;;;;;;5071806;28;20035;-66
2023/06/12 04:10:04;;;;;;;6.15;4.18;;;20.40;58.20;;;;;;5082342;28;20644;-67
2023/06/12 04:12:30;;;;;;;5.32;4.22;;;20.40;58.30;;;;;;5057067;28;20035;-67
2023/06/12 04:14:56;;;;;;;6.13;4.55;;;20.50;58.50;;;;;;5074557;28;20364;-67
2023/06/12 04:17:23;;;;;;;7.57;4.70;;;20.40;58.50;;;;;;5083349;28;20027;-67
2023/06/12 04:19:49;;;;;;;5.10;4.03;;;20.50;58.60;;;;;;5047698;28;20028;-67
2023/06/12 04:22:16;;;;;;;6.15;4.60;;;20.50;58.70;;;;;;5075392;28;20023;-67
2023/06/12 04:24:42;;;;;;;8.68;5.10;;;20.50;58.80;;;;;;5079426;28;20044;-66
2023/06/12 04:27:10;;;;;;;5.60;4.40;;;20.50;58.80;;;;;;5042164;28;20036;-67
2023/06/12 04:29:40;;;;;;;6.63;4.50;;;20.50;59.00;;;;;;5074800;28;20113;-66
2023/06/12 04:32:07;;;;;;;6.93;4.33;;;20.50;60.00;;;;;;5069828;28;20066;-67
2023/06/12 04:34:45;;;;;;;6.47;4.60;;;20.50;59.00;;;;;;5051553;28;20805;-66
2023/06/12 04:37:14;;;;;;;6.38;4.50;;;20.60;59.90;;;;;;5075300;28;20116;-67
2023/06/12 04:39:45;;;;;;;6.50;4.38;;;20.60;59.10;;;;;;5071113;28;20023;-66
2023/06/12 04:42:16;;;;;;;6.10;4.45;;;20.60;59.50;;;;;;5078393;28;20024;-65
2023/06/12 04:44:42;;;;;;;5.40;4.40;;;20.60;59.30;;;;;;5048256;28;20055;-65
2023/06/12 04:47:10;;;;;;;5.68;4.30;;;20.70;59.40;;;;;;5068370;28;20081;-64
2023/06/12 04:49:41;;;;;;;5.30;4.13;;;20.70;60.10;;;;;;5070215;28;20058;-65
2023/06/12 04:52:08;;;;;;;5.30;4.15;;;20.80;59.90;;;;;;5076504;28;20028;-64
2023/06/12 04:54:38;;;;;;;5.72;4.57;;;20.80;59.60;;;;;;5074688;28;20024;-65
2023/06/12 04:57:12;;;;;;;6.70;4.20;;;20.90;59.60;;;;;;5082242;28;20339;-64
2023/06/12 04:59:38;;;;;;;5.22;4.22;;;20.90;59.60;;;;;;5050305;28;20399;-65
2023/06/12 05:02:07;;;;;;;7.25;4.10;;;20.90;59.50;;;;;;5038465;28;20032;-64
2023/06/12 05:04:35;;;;;;;5.95;4.10;;;21.00;59.90;;;;;;5076441;28;20119;-65
2023/06/12 05:07:03;;;;;;;5.68;4.30;;;21.00;59.60;;;;;;5047557;28;20489;-64
2023/06/12 05:09:29;;;;;;;7.60;4.33;;;21.10;59.80;;;;;;5061025;28;20367;-65
2023/06/12 05:11:55;;;;;;;5.72;4.20;;;21.10;59.80;;;;;;5078106;28;20291;-63
2023/06/12 05:14:21;;;;;;;6.68;4.22;;;21.10;59.80;;;;;;5051348;28;20031;-64
2023/06/12 05:16:46;;;;;;;6.83;4.30;;;21.20;59.80;;;;;;5069606;28;20023;-65
2023/06/12 05:19:12;;;;;;;4.70;3.90;;;21.20;59.90;;;;;;5086044;28;20463;-64
2023/06/12 05:21:41;;;;;;;5.60;4.00;;;21.30;60.60;;;;;;5057749;28;20031;-65
2023/06/12 05:24:07;;;;;;;5.73;4.10;;;21.30;59.90;;;;;;5069036;28;20406;-64
2023/06/12 05:26:33;;;;;;;5.18;3.90;;;21.40;60.70;;;;;;5080113;27;20081;-65
2023/06/12 05:29:00;;;;;;;4.80;4.03;;;21.40;59.90;;;;;;5055478;28;20235;-64
2023/06/12 05:31:28;;;;;;;5.68;4.10;;;21.40;59.60;;;;;;5065060;28;20483;-65
2023/06/12 05:33:54;;;;;;;4.93;3.90;;;21.50;59.80;;;;;;5071596;28;20035;-64
2023/06/12 05:36:21;;;;;;;5.37;4.10;;;21.50;59.70;;;;;;5063973;28;21512;-64
2023/06/12 05:38:46;;;;;;;6.18;3.95;;;21.50;59.80;;;;;;5070601;28;20046;-64
2023/06/12 05:41:16;;;;;;;5.22;3.80;;;21.60;59.90;;;;;;5070670;28;20019;-65
2023/06/12 05:43:45;;;;;;;4.97;3.92;;;21.60;60.10;;;;;;5053725;28;20342;-65
2023/06/12 05:46:11;;;;;;;6.33;3.90;;;21.70;59.80;;;;;;5075669;28;20390;-65
2023/06/12 05:48:37;;;;;;;5.82;3.72;;;21.70;59.80;;;;;;5072422;28;20063;-64
2023/06/12 05:51:05;;;;;;;6.03;3.85;;;21.80;59.80;;;;;;5062989;28;20423;-64
2023/06/12 05:53:32;;;;;;;5.40;3.53;;;21.80;59.60;;;;;;5059033;28;20139;-65
2023/06/12 05:55:57;;;;;;;4.97;3.63;;;21.90;59.60;;;;;;5058662;28;20188;-64
2023/06/12 05:58:23;;;;;;;5.50;3.65;;;21.90;59.60;;;;;;5071384;28;20327;-64
2023/06/12 06:00:49;;;;;;;5.63;3.50;;;22.00;59.50;;;;;;5051540;28;20028;-65
2023/06/12 06:03:19;;;;;;;3.92;3.20;;;22.10;59.50;;;;;;5056081;28;20038;-64
2023/06/12 06:05:46;;;;;;;5.57;3.78;;;22.10;59.60;;;;;;5053598;28;20031;-65
2023/06/12 06:08:12;;;;;;;4.25;3.33;;;22.20;59.50;;;;;;5047178;28;20781;-65
2023/06/12 06:10:38;;;;;;;5.13;3.13;;;22.30;59.50;;;;;;5054399;28;20773;-65
2023/06/12 06:13:04;;;;;;;4.33;3.20;;;22.40;59.50;;;;;;5070138;28;20269;-64
2023/06/12 06:15:30;;;;;;;5.57;3.58;;;22.50;59.50;;;;;;5054032;28;20394;-64
2023/06/12 06:17:56;;;;;;;4.15;3.28;;;22.60;59.30;;;;;;5075591;28;20023;-65
2023/06/12 06:20:22;;;;;;;4.32;3.40;;;22.70;59.00;;;;;;5069187;28;20032;-65
2023/06/12 06:22:48;;;;;;;3.70;3.20;;;22.70;58.90;;;;;;5062125;28;20024;-65
2023/06/12 06:25:15;;;;;;;4.00;3.30;;;22.80;59.10;;;;;;5074594;28;20040;-65
2023/06/12 06:27:41;;;;;;;5.13;3.22;;;22.90;59.00;;;;;;5070851;28;20738;-65
2023/06/12 06:30:07;;;;;;;4.00;3.30;;;23.00;58.80;;;;;;5049949;28;21241;-64
2023/06/12 06:32:33;;;;;;;4.93;3.40;;;23.10;58.60;;;;;;5071897;28;20098;-65
2023/06/12 06:34:59;;;;;;;5.45;3.47;;;23.10;58.40;;;;;;5070546;28;20570;-65
2023/06/12 06:37:25;;;;;;;5.40;3.38;;;23.20;58.30;;;;;;5067035;28;20434;-65
2023/06/12 06:39:51;;;;;;;4.83;3.93;;;23.30;58.30;;;;;;5049179;28;20115;-65
2023/06/12 06:42:16;;;;;;;5.28;3.20;;;23.40;58.10;;;;;;5081383;28;20088;-64
2023/06/12 06:44:42;;;;;;;3.83;3.27;;;23.50;58.00;;;;;;5074753;28;20036;-65
2023/06/12 06:47:10;;;;;;;3.67;3.08;;;23.60;57.80;;;;;;5055454;28;20031;-64
2023/06/12 06:49:37;;;;;;;4.88;3.25;;;23.70;57.60;;;;;;5066625;28;20028;-65
2023/06/12 06:52:06;;;;;;;5.22;3.50;;;23.80;57.70;;;;;;5067140;28;20051;-64
2023/06/12 06:54:32;;;;;;;4.33;3.37;;;23.90;57.50;;;;;;5057626;28;20472;-65
2023/06/12 06:57:00;;;;;;;4.25;3.20;;;24.00;57.40;;;;;;5059518;28;20112;-65
2023/06/12 06:59:26;;;;;;;4.63;3.10;;;24.10;57.60;;;;;;5061663;28;20128;-65
2023/06/12 07:01:51;;;;;;;6.00;3.30;;;24.20;57.30;;;;;;5055243;28;20035;-64
2023/06/12 07:04:17;;;;;;;5.03;3.15;;;24.30;57.10;;;;;;5082326;28;20022;-65
2023/06/12 07:06:43;;;;;;;4.60;3.10;;;24.40;57.00;;;;;;5078631;28;20028;-64
2023/06/12 07:09:09;;;;;;;4.65;3.28;;;24.50;56.80;;;;;;5059017;28;20686;-65
2023/06/12 07:11:35;;;;;;;5.37;3.30;;;24.60;57.00;;;;;;5053969;28;20107;-64
2023/06/12 07:14:01;;;;;;;5.40;3.05;;;24.70;56.80;;;;;;5076062;28;20044;-65
2023/06/12 07:16:27;;;;;;;4.20;3.22;;;24.80;56.60;;;;;;5076835;28;20525;-65
2023/06/12 07:18:53;;;;;;;4.88;3.40;;;24.90;56.60;;;;;;5056857;28;20027;-64
2023/06/12 07:21:19;;;;;;;4.33;3.10;;;25.00;56.30;;;;;;5076778;28;20086;-65
2023/06/12 07:23:45;;;;;;;4.30;2.85;;;25.10;56.10;;;;;;5070754;28;20282;-64
2023/06/12 07:26:11;;;;;;;5.13;3.20;;;25.30;56.00;;;;;;5056361;28;20048;-65
2023/06/12 07:28:37;;;;;;;4.65;3.17;;;25.40;55.80;;;;;;5072844;28;20345;-64
2023/06/12 07:31:03;;;;;;;3.70;2.97;;;25.50;55.70;;;;;;5082231;28;20028;-65
2023/06/12 07:33:28;;;;;;;4.07;3.13;;;25.60;55.50;;;;;;5036974;28;20054;-65
2023/06/12 07:35:54;;;;;;;4.57;3.37;;;25.70;55.20;;;;;;5083948;28;20032;-64
2023/06/12 07:38:20;;;;;;;3.78;2.97;;;25.80;55.00;;;;;;5080871;28;20093;-65
2023/06/12 07:40:46;;;;;;;3.58;2.92;;;25.90;55.00;;;;;;5053987;28;20016;-64
2023/06/12 07:43:11;;;;;;;4.83;3.10;;;26.00;54.80;;;;;;5085549;28;20039;-65
2023/06/12 07:45:37;;;;;;;4.78;3.08;;;26.10;54.80;;;;;;5078267;28;20024;-64
2023/06/12 07:48:03;;;;;;;4.07;3.00;;;26.20;54.70;;;;;;5084746;28;20038;-65
2023/06/12 07:50:29;;;;;;;4.65;3.30;;;26.30;54.50;;;;;;5064033;28;20280;-64
2023/06/12 07:52:55;;;;;;;4.63;3.35;;;26.50;54.50;;;;;;5087755;28;20036;-64
2023/06/12 07:55:21;;;;;;;4.57;3.20;;;26.60;54.50;;;;;;5046567;28;20060;-64
2023/06/12 07:57:50;;;;;;;4.43;3.08;;;26.80;54.40;;;;;;5085166;28;20483;-64
2023/06/12 08:00:17;;;;;;;4.03;3.25;;;26.90;55.20;;;;;;5078569;28;20461;-65
2023/06/12 08:02:44;;;;;;;3.83;3.10;;;27.10;54.70;;;;;;5085428;28;20024;-64
2023/06/12 08:05:11;;;;;;;5.68;3.10;;;27.30;55.00;;;;;;5058940;28;20572;-65
2023/06/12 08:07:37;;;;;;;5.05;3.25;;;27.70;55.50;;;;;;5082740;28;20828;-65
2023/06/12 08:10:03;;;;;;;3.70;3.03;;;28.00;55.00;;;;;;5083865;28;20027;-65
2023/06/12 08:12:29;;;;;;;3.45;3.13;;;28.40;54.70;;;;;;5050629;28;20190;-64
2023/06/12 08:14:55;;;;;;;3.67;3.20;;;28.70;54.70;;;;;;5079925;28;20491;-65
2023/06/12 08:17:21;;;;;;;3.93;3.07;;;29.10;54.50;;;;;;5078942;28;20035;-65
2023/06/12 08:19:48;;;;;;;4.78;3.25;;;29.50;54.20;;;;;;5086304;28;20016;-65
2023/06/12 08:22:15;;;;;;;4.50;3.45;;;29.90;53.30;;;;;;5059860;28;20112;-65
2023/06/12 08:24:43;;;;;;;3.78;3.03;;;30.30;53.40;;;;;;5084612;28;20462;-64
2023/06/12 08:27:11;;;;;;;3.43;3.10;;;30.70;52.90;;;;;;5063354;28;20058;-66
2023/06/12 08:29:39;;;;;;;5.15;3.10;;;31.20;52.50;;;;;;5072319;28;20090;-65
2023/06/12 08:32:06;;;;;;;4.55;2.92;;;31.70;52.10;;;;;;5087943;28;20047;-65
2023/06/12 08:34:32;;;;;;;3.40;3.10;;;32.10;51.60;;;;;;5083856;28;20034;-64
2023/06/12 08:36:58;;;;;;;3.50;3.20;;;32.60;51.20;;;;;;5062333;28;20070;-65
2023/06/12 08:39:24;;;;;;;3.88;3.47;;;33.10;50.50;;;;;;5087714;28;20021;-65
2023/06/12 08:42:04;;;;;;;3.75;3.35;;;33.50;49.60;;;;;;5080902;28;20031;-65
2023/06/12 08:44:31;;;;;;;3.60;3.10;;;34.00;47.40;;;;;;5060285;28;20242;-65
2023/06/12 08:47:01;;;;;;;4.22;3.20;;;34.40;47.60;;;;;;5086243;28;20610;-65
2023/06/12 08:49:28;;;;;;;3.80;3.40;;;34.70;45.80;;;;;;5079014;28;20303;-65
2023/06/12 08:51:53;;;;;;;3.40;3.10;;;35.00;45.30;;;;;;5062596;28;20028;-65
2023/06/12 08:54:20;;;;;;;5.43;3.37;;;35.30;44.90;;;;;;5080909;28;20043;-65
2023/06/12 08:56:46;;;;;;;3.60;3.30;;;35.50;44.30;;;;;;5084891;28;20024;-65
2023/06/12 08:59:13;;;;;;;3.67;3.38;;;35.70;43.60;;;;;;5051494;28;20309;-65
2023/06/12 09:01:39;;;;;;;3.88;3.47;;;35.90;42.60;;;;;;5078618;28;20035;-64
2023/06/12 09:04:41;;;;;;;4.80;3.30;;;36.10;42.10;;;;;;5086842;28;20028;-66
2023/06/12 09:07:07;;;;;;;5.57;3.10;;;36.30;40.80;;;;;;5069929;28;20055;-66
2023/06/12 09:09:45;;;;;;;3.90;3.60;;;36.50;41.20;;;;;;5068928;28;20236;-65
2023/06/12 09:12:15;;;;;;;3.70;3.30;;;36.60;39.10;;;;;;5077430;28;20019;-66
2023/06/12 09:14:50;;;;;;;3.55;3.05;;;36.80;40.00;;;;;;5063805;28;20039;-66
2023/06/12 09:17:16;;;;;;;3.80;3.50;;;37.00;40.00;;;;;;5076797;28;20020;-66
2023/06/12 09:19:47;;;;;;;3.95;3.55;;;37.20;40.10;;;;;;5084707;28;20036;-65
2023/06/12 09:22:13;;;;;;;3.88;3.35;;;37.40;39.30;;;;;;5075406;28;20019;-66
2023/06/12 09:24:40;;;;;;;4.00;3.60;;;37.60;39.80;;;;;;5060274;28;20227;-65
2023/06/12 09:27:06;;;;;;;3.63;3.13;;;37.90;38.30;;;;;;5085966;28;20413;-66
2023/06/12 09:29:38;;;;;;;4.32;3.20;;;38.00;37.80;;;;;;5054687;28;20522;-64
2023/06/12 09:32:07;;;;;;;3.45;3.10;;;38.20;37.10;;;;;;5084456;28;20100;-65
2023/06/12 09:34:34;;;;;;;4.00;3.28;;;38.40;36.70;;;;;;5073815;28;20502;-65
2023/06/12 09:37:01;;;;;;;4.50;4.00;;;38.40;36.60;;;;;;5085003;28;20028;-64
2023/06/12 09:39:29;;;;;;;3.50;3.20;;;38.50;36.10;;;;;;5059379;28;20258;-64
2023/06/12 09:41:55;;;;;;;4.55;3.83;;;38.70;35.50;;;;;;5087469;28;20023;-65
2023/06/12 09:44:31;;;;;;;4.05;3.40;;;38.80;35.70;;;;;;5061846;28;20043;-65
2023/06/12 09:47:04;;;;;;;4.00;3.70;;;38.90;33.90;;;;;;5083822;28;20603;-65
2023/06/12 09:49:31;;;;;;;3.92;3.47;;;39.00;34.00;;;;;;5071400;28;20226;-65
2023/06/12 09:52:04;;;;;;;3.70;3.40;;;39.20;34.20;;;;;;5085830;28;20475;-65
2023/06/12 09:54:32;;;;;;;4.28;3.88;;;39.20;33.20;;;;;;5082852;28;20043;-65
2023/06/12 09:57:00;;;;;;;4.57;3.78;;;39.30;33.40;;;;;;5057848;28;20030;-66
2023/06/12 09:59:32;;;;;;;4.38;3.97;;;39.40;32.90;;;;;;5060854;28;20989;-66
2023/06/12 10:02:15;;;;;;;3.85;3.55;;;39.50;31.70;;;;;;5088156;28;20031;-65
2023/06/12 10:04:59;;;;;;;3.80;3.50;;;39.50;32.00;;;;;;5076338;28;20032;-66
2023/06/12 10:07:28;;;;;;;3.67;3.38;;;39.50;31.20;;;;;;5084032;28;20115;-65
2023/06/12 10:09:55;;;;;;;3.70;3.40;;;39.50;31.60;;;;;;5087920;28;20027;-65
2023/06/12 10:12:23;;;;;;;4.43;4.03;;;39.60;32.10;;;;;;5055770;28;20024;-65
2023/06/12 10:14:50;;;;;;;3.95;3.55;;;39.70;32.00;;;;;;5062164;28;20035;-65
2023/06/12 10:17:17;;;;;;;4.33;3.80;;;39.80;32.20;;;;;;5083349;28;20403;-66
2023/06/12 10:19:47;;;;;;;4.10;3.38;;;40.00;31.70;;;;;;5076333;28;20012;-65
2023/06/12 10:22:13;;;;;;;3.40;3.10;;;40.10;31.40;;;;;;5089978;28;20449;-66
2023/06/12 10:24:40;;;;;;;3.63;3.20;;;40.20;31.30;;;;;;5082719;28;20044;-65
2023/06/12 10:27:07;;;;;;;4.25;3.85;;;40.30;30.50;;;;;;5057603;28;20519;-66
2023/06/12 10:29:38;;;;;;;4.20;3.70;;;40.40;30.10;;;;;;5060315;28;20415;-65
2023/06/12 10:32:08;;;;;;;3.67;3.38;;;40.40;30.60;;;;;;5083519;28;20023;-66
2023/06/12 10:34:45;;;;;;;3.97;3.58;;;40.60;30.60;;;;;;5073920;28;20738;-65
2023/06/12 10:37:23;;;;;;;3.78;3.47;;;40.70;30.10;;;;;;5080964;28;20020;-66
2023/06/12 10:40:12;;;;;;;4.03;3.72;;;40.80;29.80;;;;;;5074760;28;20047;-66
2023/06/12 10:42:43;;;;;;;4.90;3.80;;;40.90;28.80;;;;;;5053315;28;20024;-65
2023/06/12 10:45:38;;;;;;;4.32;3.92;;;41.00;29.00;;;;;;5074205;28;20056;-66
2023/06/12 10:48:07;;;;;;;4.25;3.60;;;41.10;29.30;;;;;;5072108;28;20040;-66
2023/06/12 10:50:50;;;;;;;4.82;4.32;;;41.20;29.50;;;;;;5075807;28;20448;-64
2023/06/12 10:53:22;;;;;;;4.25;3.85;;;41.30;28.00;;;;;;5081694;28;20051;-66
2023/06/12 10:55:48;;;;;;;4.37;3.97;;;41.30;28.00;;;;;;5080603;28;20229;-65
2023/06/12 10:58:18;;;;;;;4.28;3.88;;;41.40;28.50;;;;;;5054500;28;20039;-66
2023/06/12 11:00:48;;;;;;;3.70;3.40;;;41.40;28.30;;;;;;5084343;28;20431;-65
2023/06/12 11:03:25;;;;;;;4.03;3.58;;;41.50;27.80;;;;;;5058147;28;20067;-66
2023/06/12 11:06:08;;;;;;;4.60;4.20;;;41.60;28.40;;;;;;5093303;28;20032;-65
2023/06/12 11:08:34;;;;;;;3.97;3.58;;;41.70;27.60;;;;;;5082591;28;20164;-65
2023/06/12 11:11:06;;;;;;;3.85;3.55;;;41.70;27.90;;;;;;5085706;28;20043;-65
2023/06/12 11:13:32;;;;;;;3.60;3.30;;;41.80;28.00;;;;;;5063494;28;20054;-65
2023/06/12 11:15:57;;;;;;;3.60;3.30;;;41.80;28.00;;;;;;5088064;27;20134;-65
2023/06/12 11:18:23;;;;;;;4.03;3.70;;;41.80;27.70;;;;;;5062080;28;20211;-65
2023/06/12 11:20:56;;;;;;;3.77;3.47;;;42.00;28.00;;;;;;5084336;28;20049;-64
2023/06/12 11:23:28;;;;;;;4.10;3.67;;;42.00;26.90;;;;;;5086165;28;20012;-66
2023/06/12 11:25:57;;;;;;;3.58;3.28;;;42.10;27.50;;;;;;5070035;28;20056;-66
2023/06/12 11:28:25;;;;;;;4.82;3.90;;;42.30;27.30;;;;;;5058659;28;20334;-65
2023/06/12 11:30:53;;;;;;;4.20;3.80;;;42.30;27.20;;;;;;5086755;28;20371;-66
2023/06/12 11:33:20;;;;;;;3.97;3.53;;;42.30;27.00;;;;;;5049564;28;21333;-65
2023/06/12 11:35:51;;;;;;;4.72;4.05;;;42.30;26.90;;;;;;5065837;28;20030;-65
2023/06/12 11:38:23;;;;;;;4.20;3.80;;;42.40;26.70;;;;;;5077763;28;20406;-65
2023/06/12 11:40:53;;;;;;;4.00;3.65;;;42.40;26.30;;;;;;5082861;28;20048;-65
2023/06/12 11:43:23;;;;;;;3.63;3.33;;;42.40;26.80;;;;;;5056662;28;20099;-65
2023/06/12 11:45:49;;;;;;;4.47;4.07;;;42.50;26.70;;;;;;5087088;28;20848;-66
2023/06/12 11:48:17;;;;;;;3.65;3.35;;;42.50;26.80;;;;;;5063362;28;20497;-66
2023/06/12 11:50:48;;;;;;;4.22;3.83;;;42.50;26.40;;;;;;5093231;28;20375;-65
2023/06/12 11:53:15;;;;;;;4.95;4.45;;;42.60;26.60;;;;;;5084588;28;20028;-66
2023/06/12 11:55:41;;;;;;;4.40;4.07;;;42.60;26.20;;;;;;5081827;28;20039;-65
2023/06/12 11:58:07;;;;;;;4.35;3.95;;;42.70;26.10;;;;;;5075596;28;20027;-66
2023/06/12 12:00:34;;;;;;;4.35;3.95;;;42.70;25.90;;;;;;5042738;28;20216;-65
2023/06/12 12:03:02;;;;;;;3.92;3.53;;;42.70;25.80;;;;;;5087407;28;20032;-66
2023/06/12 12:05:34;;;;;;;4.20;3.90;;;42.60;25.60;;;;;;5063108;28;20790;-65
2023/06/12 12:08:03;;;;;;;4.57;4.27;;;42.60;25.50;;;;;;5076328;28;20119;-66
2023/06/12 12:10:33;;;;;;;3.78;3.47;;;42.60;25.70;;;;;;5080687;28;20780;-66
2023/06/12 12:13:03;;;;;;;5.35;3.90;;;42.70;25.70;;;;;;5088661;28;20663;-66
2023/06/12 12:15:37;;;;;;;3.90;3.60;;;42.80;25.20;;;;;;5058569;28;20148;-66
2023/06/12 12:18:03;;;;;;;4.50;4.10;;;42.80;25.50;;;;;;5083299;28;20039;-66
2023/06/12 12:20:30;;;;;;;4.33;3.93;;;42.90;24.80;;;;;;5061237;28;20101;-65
2023/06/12 12:23:00;;;;;;;4.47;4.00;;;42.80;24.50;;;;;;5085410;28;20035;-66
2023/06/12 12:25:31;;;;;;;3.35;3.05;;;42.70;24.40;;;;;;5076617;28;20275;-65
2023/06/12 12:28:02;;;;;;;4.03;3.72;;;42.60;24.30;;;;;;5085174;28;20043;-66
2023/06/12 12:30:28;;;;;;;4.13;3.73;;;42.60;24.60;;;;;;5082891;28;20107;-66
2023/06/12 12:32:55;;;;;;;4.22;3.83;;;42.60;24.70;;;;;;5058374;28;20042;-66
2023/06/12 12:35:23;;;;;;;3.58;3.25;;;42.50;24.20;;;;;;5060388;28;20243;-66
2023/06/12 12:37:51;;;;;;;3.80;3.50;;;42.50;24.30;;;;;;5084895;28;20031;-66
2023/06/12 12:40:17;;;;;;;3.50;3.20;;;42.50;24.40;;;;;;5075391;28;20016;-66
2023/06/12 12:42:45;;;;;;;3.63;3.22;;;42.40;24.20;;;;;;5083242;28;20626;-66
2023/06/12 12:45:12;;;;;;;4.30;3.90;;;42.40;24.10;;;;;;5082485;28;20091;-66
2023/06/12 12:47:48;;;;;;;3.65;3.35;;;42.40;24.10;;;;;;5042057;28;20050;-65
2023/06/12 12:50:14;;;;;;;4.30;3.90;;;42.50;24.10;;;;;;5047000;28;20478;-67
2023/06/12 12:52:40;;;;;;;4.10;3.70;;;42.50;24.10;;;;;;5081497;28;20347;-66